sensor_id;sensor_type;location;lat;lon;timestamp;temperature;humidity
13093;DHT22;6612;49.568;11.000;2023-01-16T00:01:33;5.00;66.90
13093;DHT22;6612;49.568;11.000;2023-01-16T00:04:00;4.90;66.80
13093;DHT22;6612;49.568;11.000;2023-01-16T00:06:27;4.90;66.80
13093;DHT22;6612;49.568;11.000;2023-01-16T00:08:54;4.90;66.80
13093;DHT22;6612;49.568;11.000;2023-01-16T00:11:22;4.90;66.90
13093;DHT22;6612;49.568;11.000;2023-01-16T00:13:49;4.90;67.00
13093;DHT22;6612;49.568;11.000;2023-01-16T00:16:16;4.90;67.10
13093;DHT22;6612;49.568;11.000;2023-01-16T00:21:12;4.90;66.60
13093;DHT22;6612;49.568;11.000;2023-01-16T00:23:38;4.90;67.30
13093;DHT22;6612;49.568;11.000;2023-01-16T00:26:06;4.90;67.30
13093;DHT22;6612;49.568;11.000;2023-01-16T00:28:36;4.90;67.30
13093;DHT22;6612;49.568;11.000;2023-01-16T00:31:04;5.00;67.40
13093;DHT22;6612;49.568;11.000;2023-01-16T00:33:31;4.90;67.40
13093;DHT22;6612;49.568;11.000;2023-01-16T00:35:58;4.90;67.40
13093;DHT22;6612;49.568;11.000;2023-01-16T00:38:25;5.00;67.50
13093;DHT22;6612;49.568;11.000;2023-01-16T00:40:52;5.00;67.50
13093;DHT22;6612;49.568;11.000;2023-01-16T00:43:19;5.00;67.40
13093;DHT22;6612;49.568;11.000;2023-01-16T00:45:47;5.00;66.60
13093;DHT22;6612;49.568;11.000;2023-01-16T00:48:14;5.00;67.20
13093;DHT22;6612;49.568;11.000;2023-01-16T00:50:41;5.00;67.10
13093;DHT22;6612;49.568;11.000;2023-01-16T00:53:08;4.90;67.00
13093;DHT22;6612;49.568;11.000;2023-01-16T00:55:35;4.90;66.80
13093;DHT22;6612;49.568;11.000;2023-01-16T00:58:02;4.90;67.40
13093;DHT22;6612;49.568;11.000;2023-01-16T01:00:29;4.90;67.70
13093;DHT22;6612;49.568;11.000;2023-01-16T01:02:58;4.90;67.70
13093;DHT22;6612;49.568;11.000;2023-01-16T01:05:25;5.00;67.60
13093;DHT22;6612;49.568;11.000;2023-01-16T01:07:52;4.90;67.30
13093;DHT22;6612;49.568;11.000;2023-01-16T01:10:19;5.00;67.30
13093;DHT22;6612;49.568;11.000;2023-01-16T01:12:46;5.00;67.10
13093;DHT22;6612;49.568;11.000;2023-01-16T01:15:13;5.00;67.00
13093;DHT22;6612;49.568;11.000;2023-01-16T01:20:10;4.90;66.30
13093;DHT22;6612;49.568;11.000;2023-01-16T01:22:37;4.90;66.80
13093;DHT22;6612;49.568;11.000;2023-01-16T01:25:04;4.90;67.60
13093;DHT22;6612;49.568;11.000;2023-01-16T01:27:31;4.80;66.80
13093;DHT22;6612;49.568;11.000;2023-01-16T01:29:58;4.80;66.80
13093;DHT22;6612;49.568;11.000;2023-01-16T01:32:25;4.80;66.80
13093;DHT22;6612;49.568;11.000;2023-01-16T01:34:52;4.80;66.90
13093;DHT22;6612;49.568;11.000;2023-01-16T01:37:20;4.80;67.10
13093;DHT22;6612;49.568;11.000;2023-01-16T01:39:47;4.80;67.40
13093;DHT22;6612;49.568;11.000;2023-01-16T01:42:16;4.90;76.00
13093;DHT22;6612;49.568;11.000;2023-01-16T01:45:09;4.80;68.20
13093;DHT22;6612;49.568;11.000;2023-01-16T01:47:39;4.90;68.40
13093;DHT22;6612;49.568;11.000;2023-01-16T01:50:15;4.90;68.50
13093;DHT22;6612;49.568;11.000;2023-01-16T01:52:45;4.90;68.40
13093;DHT22;6612;49.568;11.000;2023-01-16T01:55:13;5.00;67.60
13093;DHT22;6612;49.568;11.000;2023-01-16T01:57:44;4.90;68.10
13093;DHT22;6612;49.568;11.000;2023-01-16T02:00:15;5.00;67.90
13093;DHT22;6612;49.568;11.000;2023-01-16T02:02:45;5.10;67.90
13093;DHT22;6612;49.568;11.000;2023-01-16T02:05:16;5.10;68.80
13093;DHT22;6612;49.568;11.000;2023-01-16T02:07:47;5.10;68.30
13093;DHT22;6612;49.568;11.000;2023-01-16T02:10:20;5.10;68.60
13093;DHT22;6612;49.568;11.000;2023-01-16T02:12:48;5.20;68.60
13093;DHT22;6612;49.568;11.000;2023-01-16T02:15:15;5.20;68.80
13093;DHT22;6612;49.568;11.000;2023-01-16T02:17:46;5.30;69.00
13093;DHT22;6612;49.568;11.000;2023-01-16T02:20:34;5.30;68.80
13093;DHT22;6612;49.568;11.000;2023-01-16T02:26:32;5.50;68.50
13093;DHT22;6612;49.568;11.000;2023-01-16T02:29:29;5.50;68.30
13093;DHT22;6612;49.568;11.000;2023-01-16T02:32:18;5.60;68.40
13093;DHT22;6612;49.568;11.000;2023-01-16T02:35:02;5.70;68.50
13093;DHT22;6612;49.568;11.000;2023-01-16T02:37:40;5.70;68.40
13093;DHT22;6612;49.568;11.000;2023-01-16T02:40:21;5.70;68.20
13093;DHT22;6612;49.568;11.000;2023-01-16T02:42:56;5.70;67.90
13093;DHT22;6612;49.568;11.000;2023-01-16T02:45:29;5.80;68.10
13093;DHT22;6612;49.568;11.000;2023-01-16T02:48:06;5.80;67.60
13093;DHT22;6612;49.568;11.000;2023-01-16T02:50:38;5.80;67.50
13093;DHT22;6612;49.568;11.000;2023-01-16T02:53:13;5.80;67.90
13093;DHT22;6612;49.568;11.000;2023-01-16T02:55:43;5.90;68.00
13093;DHT22;6612;49.568;11.000;2023-01-16T02:58:13;5.90;68.70
13093;DHT22;6612;49.568;11.000;2023-01-16T03:00:49;5.90;68.10
13093;DHT22;6612;49.568;11.000;2023-01-16T03:03:40;6.00;67.80
13093;DHT22;6612;49.568;11.000;2023-01-16T03:06:24;5.90;67.60
13093;DHT22;6612;49.568;11.000;2023-01-16T03:09:04;6.00;67.60
13093;DHT22;6612;49.568;11.000;2023-01-16T03:11:37;6.00;67.60
13093;DHT22;6612;49.568;11.000;2023-01-16T03:14:19;6.00;67.50
13093;DHT22;6612;49.568;11.000;2023-01-16T03:17:00;6.00;67.30
13093;DHT22;6612;49.568;11.000;2023-01-16T03:19:39;6.00;67.20
13093;DHT22;6612;49.568;11.000;2023-01-16T03:22:12;6.10;67.10
13093;DHT22;6612;49.568;11.000;2023-01-16T03:24:57;6.10;67.50
13093;DHT22;6612;49.568;11.000;2023-01-16T03:27:36;6.10;67.30
13093;DHT22;6612;49.568;11.000;2023-01-16T03:30:10;6.10;67.70
13093;DHT22;6612;49.568;11.000;2023-01-16T03:32:41;6.10;67.00
13093;DHT22;6612;49.568;11.000;2023-01-16T03:35:15;6.20;67.30
13093;DHT22;6612;49.568;11.000;2023-01-16T03:37:47;6.10;67.10
13093;DHT22;6612;49.568;11.000;2023-01-16T03:40:21;6.10;67.00
13093;DHT22;6612;49.568;11.000;2023-01-16T03:42:55;6.10;67.10
13093;DHT22;6612;49.568;11.000;2023-01-16T03:45:28;6.10;66.80
13093;DHT22;6612;49.568;11.000;2023-01-16T03:48:01;6.10;66.40
13093;DHT22;6612;49.568;11.000;2023-01-16T03:50:32;6.20;66.30
13093;DHT22;6612;49.568;11.000;2023-01-16T03:53:04;6.10;66.90
13093;DHT22;6612;49.568;11.000;2023-01-16T03:55:37;6.10;66.00
13093;DHT22;6612;49.568;11.000;2023-01-16T03:58:08;6.10;65.40
13093;DHT22;6612;49.568;11.000;2023-01-16T04:00:42;6.00;65.50
13093;DHT22;6612;49.568;11.000;2023-01-16T04:03:16;6.00;65.40
13093;DHT22;6612;49.568;11.000;2023-01-16T04:05:51;5.90;65.20
13093;DHT22;6612;49.568;11.000;2023-01-16T04:08:25;5.90;65.10
13093;DHT22;6612;49.568;11.000;2023-01-16T04:10:55;5.80;65.00
13093;DHT22;6612;49.568;11.000;2023-01-16T04:13:26;5.80;65.10
13093;DHT22;6612;49.568;11.000;2023-01-16T04:15:56;5.60;66.40
13093;DHT22;6612;49.568;11.000;2023-01-16T04:18:27;5.60;64.80
13093;DHT22;6612;49.568;11.000;2023-01-16T04:20:56;5.60;64.70
13093;DHT22;6612;49.568;11.000;2023-01-16T04:23:23;5.60;64.90
13093;DHT22;6612;49.568;11.000;2023-01-16T04:25:50;5.50;65.00
13093;DHT22;6612;49.568;11.000;2023-01-16T04:28:17;5.40;64.80
13093;DHT22;6612;49.568;11.000;2023-01-16T04:30:44;5.40;64.90
13093;DHT22;6612;49.568;11.000;2023-01-16T04:33:11;5.40;64.90
13093;DHT22;6612;49.568;11.000;2023-01-16T04:35:38;5.30;67.20
13093;DHT22;6612;49.568;11.000;2023-01-16T04:38:07;5.30;65.00
13093;DHT22;6612;49.568;11.000;2023-01-16T04:40:35;5.30;65.00
13093;DHT22;6612;49.568;11.000;2023-01-16T04:43:01;5.20;65.00
13093;DHT22;6612;49.568;11.000;2023-01-16T04:45:29;5.20;65.10
13093;DHT22;6612;49.568;11.000;2023-01-16T04:47:56;5.20;65.00
13093;DHT22;6612;49.568;11.000;2023-01-16T04:50:22;5.10;65.00
13093;DHT22;6612;49.568;11.000;2023-01-16T04:52:49;5.10;65.00
13093;DHT22;6612;49.568;11.000;2023-01-16T04:55:18;5.00;65.00
13093;DHT22;6612;49.568;11.000;2023-01-16T04:57:46;5.00;65.00
13093;DHT22;6612;49.568;11.000;2023-01-16T05:00:13;5.00;65.10
13093;DHT22;6612;49.568;11.000;2023-01-16T05:02:40;4.90;65.00
13093;DHT22;6612;49.568;11.000;2023-01-16T05:05:07;4.90;65.10
13093;DHT22;6612;49.568;11.000;2023-01-16T05:07:34;4.90;65.00
13093;DHT22;6612;49.568;11.000;2023-01-16T05:10:01;4.80;65.00
13093;DHT22;6612;49.568;11.000;2023-01-16T05:12:30;4.70;64.80
13093;DHT22;6612;49.568;11.000;2023-01-16T05:14:57;4.80;64.90
13093;DHT22;6612;49.568;11.000;2023-01-16T05:17:24;4.80;65.00
13093;DHT22;6612;49.568;11.000;2023-01-16T05:19:52;4.70;64.80
13093;DHT22;6612;49.568;11.000;2023-01-16T05:22:19;4.60;67.20
13093;DHT22;6612;49.568;11.000;2023-01-16T05:24:46;4.70;64.70
13093;DHT22;6612;49.568;11.000;2023-01-16T05:27:12;4.60;64.80
13093;DHT22;6612;49.568;11.000;2023-01-16T05:29:41;4.60;65.60
13093;DHT22;6612;49.568;11.000;2023-01-16T05:32:08;4.60;65.00
13093;DHT22;6612;49.568;11.000;2023-01-16T05:34:34;4.50;65.00
13093;DHT22;6612;49.568;11.000;2023-01-16T05:37:01;4.50;65.10
13093;DHT22;6612;49.568;11.000;2023-01-16T05:39:28;4.50;65.10
13093;DHT22;6612;49.568;11.000;2023-01-16T05:41:55;4.50;65.20
13093;DHT22;6612;49.568;11.000;2023-01-16T05:44:22;4.40;65.00
13093;DHT22;6612;49.568;11.000;2023-01-16T05:46:50;4.40;65.10
13093;DHT22;6612;49.568;11.000;2023-01-16T05:49:17;4.40;65.10
13093;DHT22;6612;49.568;11.000;2023-01-16T05:51:44;4.40;65.10
13093;DHT22;6612;49.568;11.000;2023-01-16T05:54:11;4.30;65.10
13093;DHT22;6612;49.568;11.000;2023-01-16T05:59:07;4.30;64.70
13093;DHT22;6612;49.568;11.000;2023-01-16T06:01:34;4.20;65.30
13093;DHT22;6612;49.568;11.000;2023-01-16T06:04:03;4.20;65.20
13093;DHT22;6612;49.568;11.000;2023-01-16T06:08:57;4.20;64.70
13093;DHT22;6612;49.568;11.000;2023-01-16T06:11:24;4.20;65.40
13093;DHT22;6612;49.568;11.000;2023-01-16T06:13:51;4.10;65.30
13093;DHT22;6612;49.568;11.000;2023-01-16T06:16:18;4.20;65.50
13093;DHT22;6612;49.568;11.000;2023-01-16T06:18:45;4.10;65.40
13093;DHT22;6612;49.568;11.000;2023-01-16T06:21:13;4.20;65.60
13093;DHT22;6612;49.568;11.000;2023-01-16T06:23:40;4.10;65.50
13093;DHT22;6612;49.568;11.000;2023-01-16T06:26:07;4.10;65.60
13093;DHT22;6612;49.568;11.000;2023-01-16T06:28:35;4.10;65.60
13093;DHT22;6612;49.568;11.000;2023-01-16T06:31:02;4.00;65.60
13093;DHT22;6612;49.568;11.000;2023-01-16T06:33:29;4.00;65.60
13093;DHT22;6612;49.568;11.000;2023-01-16T06:35:56;4.00;65.60
13093;DHT22;6612;49.568;11.000;2023-01-16T06:38:24;4.00;65.80
13093;DHT22;6612;49.568;11.000;2023-01-16T06:40:52;4.00;65.70
13093;DHT22;6612;49.568;11.000;2023-01-16T06:43:22;4.00;65.80
13093;DHT22;6612;49.568;11.000;2023-01-16T06:45:49;4.00;65.80
13093;DHT22;6612;49.568;11.000;2023-01-16T06:53:11;4.00;65.10
13093;DHT22;6612;49.568;11.000;2023-01-16T06:55:40;4.00;65.70
13093;DHT22;6612;49.568;11.000;2023-01-16T06:58:07;4.00;65.80
13093;DHT22;6612;49.568;11.000;2023-01-16T07:00:34;3.90;65.80
13093;DHT22;6612;49.568;11.000;2023-01-16T07:03:02;3.90;65.80
13093;DHT22;6612;49.568;11.000;2023-01-16T07:05:30;3.90;65.80
13093;DHT22;6612;49.568;11.000;2023-01-16T07:07:57;3.90;65.90
13093;DHT22;6612;49.568;11.000;2023-01-16T07:10:24;3.90;66.80
13093;DHT22;6612;49.568;11.000;2023-01-16T07:12:52;3.90;65.90
13093;DHT22;6612;49.568;11.000;2023-01-16T07:15:20;3.90;65.40
13093;DHT22;6612;49.568;11.000;2023-01-16T07:18:05;3.90;66.00
13093;DHT22;6612;49.568;11.000;2023-01-16T07:20:52;3.90;66.00
13093;DHT22;6612;49.568;11.000;2023-01-16T07:23:39;3.90;65.90
13093;DHT22;6612;49.568;11.000;2023-01-16T07:26:08;3.90;66.00
13093;DHT22;6612;49.568;11.000;2023-01-16T07:28:37;3.90;66.20
13093;DHT22;6612;49.568;11.000;2023-01-16T07:31:05;3.90;67.00
13093;DHT22;6612;49.568;11.000;2023-01-16T07:33:33;3.90;66.40
13093;DHT22;6612;49.568;11.000;2023-01-16T07:36:00;3.90;66.40
13093;DHT22;6612;49.568;11.000;2023-01-16T07:38:27;3.90;66.60
13093;DHT22;6612;49.568;11.000;2023-01-16T07:40:54;4.00;66.80
13093;DHT22;6612;49.568;11.000;2023-01-16T07:43:21;5.40;68.20
13093;DHT22;6612;49.568;11.000;2023-01-16T07:45:49;4.00;67.20
13093;DHT22;6612;49.568;11.000;2023-01-16T07:48:18;4.10;67.30
13093;DHT22;6612;49.568;11.000;2023-01-16T07:50:49;4.20;67.90
13093;DHT22;6612;49.568;11.000;2023-01-16T07:53:17;4.30;67.90
13093;DHT22;6612;49.568;11.000;2023-01-16T07:55:47;4.40;68.70
13093;DHT22;6612;49.568;11.000;2023-01-16T07:58:14;4.60;69.00
13093;DHT22;6612;49.568;11.000;2023-01-16T08:03:10;4.90;67.70
13093;DHT22;6612;49.568;11.000;2023-01-16T08:05:37;5.00;67.60
13093;DHT22;6612;49.568;11.000;2023-01-16T08:08:04;5.00;67.30
13093;DHT22;6612;49.568;11.000;2023-01-16T08:10:31;5.10;67.20
13093;DHT22;6612;49.568;11.000;2023-01-16T08:12:58;5.20;68.10
13093;DHT22;6612;49.568;11.000;2023-01-16T08:15:25;5.30;68.60
13093;DHT22;6612;49.568;11.000;2023-01-16T08:17:52;5.60;69.20
13093;DHT22;6612;49.568;11.000;2023-01-16T08:20:21;5.80;69.20
13093;DHT22;6612;49.568;11.000;2023-01-16T08:22:49;5.70;69.50
13093;DHT22;6612;49.568;11.000;2023-01-16T08:25:19;6.00;69.60
13093;DHT22;6612;49.568;11.000;2023-01-16T08:27:46;6.10;69.00
13093;DHT22;6612;49.568;11.000;2023-01-16T08:30:14;6.30;69.70
13093;DHT22;6612;49.568;11.000;2023-01-16T08:32:41;6.60;69.50
13093;DHT22;6612;49.568;11.000;2023-01-16T08:35:09;6.80;68.30
13093;DHT22;6612;49.568;11.000;2023-01-16T08:37:37;7.00;66.70
13093;DHT22;6612;49.568;11.000;2023-01-16T08:40:05;7.10;65.60
13093;DHT22;6612;49.568;11.000;2023-01-16T08:42:32;7.10;64.50
13093;DHT22;6612;49.568;11.000;2023-01-16T08:45:17;7.20;64.60
13093;DHT22;6612;49.568;11.000;2023-01-16T08:48:01;7.20;63.60
13093;DHT22;6612;49.568;11.000;2023-01-16T08:50:47;7.20;63.60
13093;DHT22;6612;49.568;11.000;2023-01-16T08:53:33;7.20;64.00
13093;DHT22;6612;49.568;11.000;2023-01-16T08:56:00;7.20;64.10
13093;DHT22;6612;49.568;11.000;2023-01-16T08:58:27;7.10;64.90
13093;DHT22;6612;49.568;11.000;2023-01-16T09:00:54;7.20;65.50
13093;DHT22;6612;49.568;11.000;2023-01-16T09:03:21;7.30;65.60
13093;DHT22;6612;49.568;11.000;2023-01-16T09:08:15;7.30;64.00
13093;DHT22;6612;49.568;11.000;2023-01-16T09:10:43;7.40;64.60
13093;DHT22;6612;49.568;11.000;2023-01-16T09:13:30;7.50;64.00
13093;DHT22;6612;49.568;11.000;2023-01-16T09:16:14;7.60;64.20
13093;DHT22;6612;49.568;11.000;2023-01-16T09:18:41;7.60;64.60
13093;DHT22;6612;49.568;11.000;2023-01-16T09:21:08;7.70;65.70
13093;DHT22;6612;49.568;11.000;2023-01-16T09:23:35;7.80;65.10
13093;DHT22;6612;49.568;11.000;2023-01-16T09:26:04;7.90;64.10
13093;DHT22;6612;49.568;11.000;2023-01-16T09:30:58;8.10;64.00
13093;DHT22;6612;49.568;11.000;2023-01-16T09:33:25;8.30;64.20
13093;DHT22;6612;49.568;11.000;2023-01-16T09:35:52;8.30;63.00
13093;DHT22;6612;49.568;11.000;2023-01-16T09:38:19;8.40;63.00
13093;DHT22;6612;49.568;11.000;2023-01-16T09:40:47;8.40;62.30
13093;DHT22;6612;49.568;11.000;2023-01-16T09:43:27;8.40;61.00
13093;DHT22;6612;49.568;11.000;2023-01-16T09:46:10;8.40;61.20
13093;DHT22;6612;49.568;11.000;2023-01-16T09:48:46;8.50;61.80
13093;DHT22;6612;49.568;11.000;2023-01-16T09:51:18;8.50;61.30
13093;DHT22;6612;49.568;11.000;2023-01-16T09:53:49;8.50;61.30
13093;DHT22;6612;49.568;11.000;2023-01-16T09:56:38;8.50;61.80
13093;DHT22;6612;49.568;11.000;2023-01-16T09:59:32;8.60;63.10
13093;DHT22;6612;49.568;11.000;2023-01-16T10:02:07;8.70;62.90
13093;DHT22;6612;49.568;11.000;2023-01-16T10:04:36;8.90;64.80
13093;DHT22;6612;49.568;11.000;2023-01-16T10:09:59;9.40;64.70
13093;DHT22;6612;49.568;11.000;2023-01-16T10:12:32;9.70;64.60
13093;DHT22;6612;49.568;11.000;2023-01-16T10:15:16;10.00;60.90
13093;DHT22;6612;49.568;11.000;2023-01-16T10:17:55;10.10;58.20
13093;DHT22;6612;49.568;11.000;2023-01-16T10:23:39;10.50;60.10
13093;DHT22;6612;49.568;11.000;2023-01-16T10:26:15;10.70;60.40
13093;DHT22;6612;49.568;11.000;2023-01-16T10:28:54;10.90;61.30
13093;DHT22;6612;49.568;11.000;2023-01-16T10:31:26;11.00;59.70
13093;DHT22;6612;49.568;11.000;2023-01-16T10:33:55;11.00;59.30
13093;DHT22;6612;49.568;11.000;2023-01-16T10:36:26;11.10;59.20
13093;DHT22;6612;49.568;11.000;2023-01-16T10:38:58;11.10;59.40
13093;DHT22;6612;49.568;11.000;2023-01-16T10:41:27;11.10;59.30
13093;DHT22;6612;49.568;11.000;2023-01-16T10:44:27;11.20;59.90
13093;DHT22;6612;49.568;11.000;2023-01-16T10:47:15;11.30;57.10
13093;DHT22;6612;49.568;11.000;2023-01-16T10:50:00;11.40;57.40
13093;DHT22;6612;49.568;11.000;2023-01-16T10:52:27;11.30;54.70
13093;DHT22;6612;49.568;11.000;2023-01-16T10:54:56;11.20;55.70
13093;DHT22;6612;49.568;11.000;2023-01-16T10:57:25;11.10;56.60
13093;DHT22;6612;49.568;11.000;2023-01-16T10:59:55;11.10;57.10
13093;DHT22;6612;49.568;11.000;2023-01-16T11:02:29;11.00;54.30
13093;DHT22;6612;49.568;11.000;2023-01-16T11:04:57;11.00;56.00
13093;DHT22;6612;49.568;11.000;2023-01-16T11:07:28;11.00;55.50
13093;DHT22;6612;49.568;11.000;2023-01-16T11:09:56;11.00;55.70
13093;DHT22;6612;49.568;11.000;2023-01-16T11:12:25;11.00;54.20
13093;DHT22;6612;49.568;11.000;2023-01-16T11:15:16;10.90;55.30
13093;DHT22;6612;49.568;11.000;2023-01-16T11:18:18;10.90;56.40
13093;DHT22;6612;49.568;11.000;2023-01-16T11:20:54;10.90;54.70
13093;DHT22;6612;49.568;11.000;2023-01-16T11:23:24;10.90;55.00
13093;DHT22;6612;49.568;11.000;2023-01-16T11:25:54;10.80;53.60
13093;DHT22;6612;49.568;11.000;2023-01-16T11:28:25;10.70;52.50
13093;DHT22;6612;49.568;11.000;2023-01-16T11:30:54;10.60;52.60
13093;DHT22;6612;49.568;11.000;2023-01-16T11:33:25;10.50;52.90
13093;DHT22;6612;49.568;11.000;2023-01-16T11:35:56;10.40;53.20
13093;DHT22;6612;49.568;11.000;2023-01-16T11:38:25;10.40;53.60
13093;DHT22;6612;49.568;11.000;2023-01-16T11:40:56;10.40;53.00
13093;DHT22;6612;49.568;11.000;2023-01-16T11:43:26;10.30;53.60
13093;DHT22;6612;49.568;11.000;2023-01-16T11:46:30;10.30;53.40
13093;DHT22;6612;49.568;11.000;2023-01-16T11:49:01;10.20;51.60
13093;DHT22;6612;49.568;11.000;2023-01-16T11:51:30;10.20;53.00
13093;DHT22;6612;49.568;11.000;2023-01-16T11:53:59;10.20;53.30
13093;DHT22;6612;49.568;11.000;2023-01-16T11:56:44;10.20;53.70
13093;DHT22;6612;49.568;11.000;2023-01-16T12:02:24;10.00;55.30
13093;DHT22;6612;49.568;11.000;2023-01-16T12:05:04;10.20;54.20
13093;DHT22;6612;49.568;11.000;2023-01-16T12:08:12;10.20;54.30
13093;DHT22;6612;49.568;11.000;2023-01-16T12:10:54;10.20;54.00
13093;DHT22;6612;49.568;11.000;2023-01-16T12:13:30;10.30;53.70
13093;DHT22;6612;49.568;11.000;2023-01-16T12:16:26;10.30;53.90
13093;DHT22;6612;49.568;11.000;2023-01-16T12:19:08;10.30;53.30
13093;DHT22;6612;49.568;11.000;2023-01-16T12:21:43;10.20;53.10
13093;DHT22;6612;49.568;11.000;2023-01-16T12:24:21;10.20;53.10
13093;DHT22;6612;49.568;11.000;2023-01-16T12:27:01;10.30;53.90
13093;DHT22;6612;49.568;11.000;2023-01-16T12:29:42;10.20;53.70
13093;DHT22;6612;49.568;11.000;2023-01-16T12:32:30;10.30;54.10
13093;DHT22;6612;49.568;11.000;2023-01-16T12:35:09;10.30;53.70
13093;DHT22;6612;49.568;11.000;2023-01-16T12:37:55;10.30;54.40
13093;DHT22;6612;49.568;11.000;2023-01-16T12:40:32;10.30;54.00
13093;DHT22;6612;49.568;11.000;2023-01-16T12:43:12;10.40;55.20
13093;DHT22;6612;49.568;11.000;2023-01-16T12:45:49;10.40;55.20
13093;DHT22;6612;49.568;11.000;2023-01-16T12:48:30;10.40;55.60
13093;DHT22;6612;49.568;11.000;2023-01-16T12:51:14;10.50;55.30
13093;DHT22;6612;49.568;11.000;2023-01-16T12:56:49;10.60;54.20
13093;DHT22;6612;49.568;11.000;2023-01-16T12:59:22;10.60;55.40
13093;DHT22;6612;49.568;11.000;2023-01-16T13:01:54;10.60;55.70
13093;DHT22;6612;49.568;11.000;2023-01-16T13:04:26;10.60;55.50
13093;DHT22;6612;49.568;11.000;2023-01-16T13:06:57;10.60;55.20
13093;DHT22;6612;49.568;11.000;2023-01-16T13:09:29;10.60;55.10
13093;DHT22;6612;49.568;11.000;2023-01-16T13:12:05;10.60;54.50
13093;DHT22;6612;49.568;11.000;2023-01-16T13:14:58;10.60;55.50
13093;DHT22;6612;49.568;11.000;2023-01-16T13:17:34;10.60;54.90
13093;DHT22;6612;49.568;11.000;2023-01-16T13:20:05;10.60;54.50
13093;DHT22;6612;49.568;11.000;2023-01-16T13:22:41;10.60;55.20
13093;DHT22;6612;49.568;11.000;2023-01-16T13:25:17;10.60;54.70
13093;DHT22;6612;49.568;11.000;2023-01-16T13:27:50;10.50;53.80
13093;DHT22;6612;49.568;11.000;2023-01-16T13:30:20;10.50;54.50
13093;DHT22;6612;49.568;11.000;2023-01-16T13:32:50;10.50;54.40
13093;DHT22;6612;49.568;11.000;2023-01-16T13:35:22;10.50;54.60
13093;DHT22;6612;49.568;11.000;2023-01-16T13:38:31;10.50;54.80
13093;DHT22;6612;49.568;11.000;2023-01-16T13:41:19;10.50;53.40
13093;DHT22;6612;49.568;11.000;2023-01-16T13:43:51;10.50;54.00
13093;DHT22;6612;49.568;11.000;2023-01-16T13:46:38;10.40;54.80
13093;DHT22;6612;49.568;11.000;2023-01-16T13:49:06;10.40;55.80
13093;DHT22;6612;49.568;11.000;2023-01-16T13:51:41;10.40;55.00
13093;DHT22;6612;49.568;11.000;2023-01-16T13:54:14;10.50;55.00
13093;DHT22;6612;49.568;11.000;2023-01-16T13:56:43;10.40;54.50
13093;DHT22;6612;49.568;11.000;2023-01-16T13:59:33;10.40;54.90
13093;DHT22;6612;49.568;11.000;2023-01-16T14:02:21;10.40;53.50
13093;DHT22;6612;49.568;11.000;2023-01-16T14:05:24;10.40;53.40
13093;DHT22;6612;49.568;11.000;2023-01-16T14:08:12;10.30;53.60
13093;DHT22;6612;49.568;11.000;2023-01-16T14:11:16;10.30;54.60
13093;DHT22;6612;49.568;11.000;2023-01-16T14:14:20;10.30;53.70
13093;DHT22;6612;49.568;11.000;2023-01-16T14:17:08;10.30;53.50
13093;DHT22;6612;49.568;11.000;2023-01-16T14:19:36;10.20;55.00
13093;DHT22;6612;49.568;11.000;2023-01-16T14:22:04;10.20;54.80
13093;DHT22;6612;49.568;11.000;2023-01-16T14:24:52;10.20;54.80
13093;DHT22;6612;49.568;11.000;2023-01-16T14:27:22;10.20;54.70
13093;DHT22;6612;49.568;11.000;2023-01-16T14:29:52;10.20;54.80
13093;DHT22;6612;49.568;11.000;2023-01-16T14:32:24;10.30;54.30
13093;DHT22;6612;49.568;11.000;2023-01-16T14:34:54;10.20;54.00
13093;DHT22;6612;49.568;11.000;2023-01-16T14:37:24;10.20;54.30
13093;DHT22;6612;49.568;11.000;2023-01-16T14:39:54;10.10;53.70
13093;DHT22;6612;49.568;11.000;2023-01-16T14:42:27;10.00;55.20
13093;DHT22;6612;49.568;11.000;2023-01-16T14:45:23;10.10;54.00
13093;DHT22;6612;49.568;11.000;2023-01-16T14:48:14;10.10;53.70
13093;DHT22;6612;49.568;11.000;2023-01-16T14:51:01;10.10;54.60
13093;DHT22;6612;49.568;11.000;2023-01-16T14:53:54;10.10;54.30
13093;DHT22;6612;49.568;11.000;2023-01-16T14:56:40;10.00;54.40
13093;DHT22;6612;49.568;11.000;2023-01-16T14:59:11;10.00;54.40
13093;DHT22;6612;49.568;11.000;2023-01-16T15:01:45;10.00;54.40
13093;DHT22;6612;49.568;11.000;2023-01-16T15:04:38;10.00;54.70
13093;DHT22;6612;49.568;11.000;2023-01-16T15:07:09;10.00;53.50
13093;DHT22;6612;49.568;11.000;2023-01-16T15:09:40;9.90;54.90
13093;DHT22;6612;49.568;11.000;2023-01-16T15:12:12;9.80;54.50
13093;DHT22;6612;49.568;11.000;2023-01-16T15:14:51;9.90;55.10
13093;DHT22;6612;49.568;11.000;2023-01-16T15:17:26;9.90;54.20
13093;DHT22;6612;49.568;11.000;2023-01-16T15:20:23;9.90;54.40
13093;DHT22;6612;49.568;11.000;2023-01-16T15:23:24;9.80;54.60
13093;DHT22;6612;49.568;11.000;2023-01-16T15:26:12;9.80;54.40
13093;DHT22;6612;49.568;11.000;2023-01-16T15:28:49;9.80;54.70
13093;DHT22;6612;49.568;11.000;2023-01-16T15:31:26;9.80;55.90
13093;DHT22;6612;49.568;11.000;2023-01-16T15:34:00;9.80;55.20
13093;DHT22;6612;49.568;11.000;2023-01-16T15:36:32;9.80;53.40
13093;DHT22;6612;49.568;11.000;2023-01-16T15:39:00;9.80;53.80
13093;DHT22;6612;49.568;11.000;2023-01-16T15:41:32;9.80;53.80
13093;DHT22;6612;49.568;11.000;2023-01-16T15:44:18;9.80;53.10
13093;DHT22;6612;49.568;11.000;2023-01-16T15:50:13;9.70;52.60
13093;DHT22;6612;49.568;11.000;2023-01-16T15:52:42;9.70;52.30
13093;DHT22;6612;49.568;11.000;2023-01-16T15:55:11;9.60;53.40
13093;DHT22;6612;49.568;11.000;2023-01-16T15:57:43;9.50;52.90
13093;DHT22;6612;49.568;11.000;2023-01-16T16:00:27;9.50;51.60
13093;DHT22;6612;49.568;11.000;2023-01-16T16:02:58;9.50;51.00
13093;DHT22;6612;49.568;11.000;2023-01-16T16:05:28;9.40;51.20
13093;DHT22;6612;49.568;11.000;2023-01-16T16:07:56;9.40;51.20
13093;DHT22;6612;49.568;11.000;2023-01-16T16:10:25;9.40;52.70
13093;DHT22;6612;49.568;11.000;2023-01-16T16:13:14;9.40;52.70
13093;DHT22;6612;49.568;11.000;2023-01-16T16:15:54;9.40;53.30
13093;DHT22;6612;49.568;11.000;2023-01-16T16:18:34;9.40;52.70
13093;DHT22;6612;49.568;11.000;2023-01-16T16:21:06;9.40;53.40
13093;DHT22;6612;49.568;11.000;2023-01-16T16:23:34;9.40;53.20
13093;DHT22;6612;49.568;11.000;2023-01-16T16:26:02;9.30;53.30
13093;DHT22;6612;49.568;11.000;2023-01-16T16:28:35;9.30;53.40
13093;DHT22;6612;49.568;11.000;2023-01-16T16:31:09;9.30;53.10
13093;DHT22;6612;49.568;11.000;2023-01-16T16:33:39;9.30;53.10
13093;DHT22;6612;49.568;11.000;2023-01-16T16:36:14;9.20;53.20
13093;DHT22;6612;49.568;11.000;2023-01-16T16:38:42;9.30;52.90
13093;DHT22;6612;49.568;11.000;2023-01-16T16:41:41;9.20;52.80
13093;DHT22;6612;49.568;11.000;2023-01-16T16:44:37;9.20;51.70
13093;DHT22;6612;49.568;11.000;2023-01-16T16:47:19;9.20;53.00
13093;DHT22;6612;49.568;11.000;2023-01-16T16:49:46;9.20;52.90
13093;DHT22;6612;49.568;11.000;2023-01-16T16:52:34;9.10;55.50
13093;DHT22;6612;49.568;11.000;2023-01-16T16:55:26;9.20;53.90
13093;DHT22;6612;49.568;11.000;2023-01-16T16:57:55;9.10;52.80
13093;DHT22;6612;49.568;11.000;2023-01-16T17:00:23;9.10;53.60
13093;DHT22;6612;49.568;11.000;2023-01-16T17:02:53;9.10;54.00